Time;durP1;ratioP1;P1;durP2;ratioP2;P2;SDS_P1;SDS_P2;PMS_P1;PMS_P2;Temp;Humidity;BMP_temperature;BMP_pressure;BME280_temperature;BME280_humidity;BME280_pressure;Samples;Min_cycle;Max_cycle;Signal;HPM_P1;HPM_P2
2024/04/11 00:01:12;;;;;;;48.17;45.92;;;;;;;6.02;100.00;101800.13;5561055;25;20503;-75
2024/04/11 00:03:41;;;;;;;73.32;70.03;;;;;;;6.04;100.00;101792.91;5526972;26;20073;-75
2024/04/11 00:06:09;;;;;;;64.13;61.13;;;;;;;5.81;100.00;101801.22;5524465;26;20397;-75
2024/04/11 00:08:38;;;;;;;60.38;57.47;;;;;;;5.78;100.00;101795.38;5532557;25;20016;-83
2024/04/11 00:11:07;;;;;;;55.05;52.45;;;;;;;5.74;100.00;101802.75;5563413;25;20463;-83
2024/04/11 00:13:41;;;;;;;52.70;50.20;;;;;;;5.89;100.00;101803.09;5564893;25;20011;-84
2024/04/11 00:16:08;;;;;;;57.75;54.75;;;;;;;5.10;100.00;101798.34;5563163;25;20012;-83
2024/04/11 00:18:39;;;;;;;69.63;66.22;;;;;;;5.82;100.00;101797.59;5566218;25;20332;-83
2024/04/11 00:21:12;;;;;;;73.85;70.35;;;;;;;5.69;100.00;101807.66;5563339;25;19997;-83
2024/04/11 00:23:41;;;;;;;49.55;47.15;;;;;;;5.64;100.00;101807.25;5566045;25;20019;-83
2024/04/11 00:26:10;;;;;;;25.73;24.52;;;;;;;6.00;100.00;101815.28;5563564;25;20000;-83
2024/04/11 00:28:41;;;;;;;33.42;31.65;;;;;;;5.96;100.00;101814.72;5565873;25;19997;-83
2024/04/11 00:31:07;;;;;;;64.32;61.30;;;;;;;5.89;100.00;101813.63;5561412;25;20072;-75
2024/04/11 00:33:37;;;;;;;66.05;62.80;;;;;;;5.76;100.00;101826.34;5563571;25;20015;-75
2024/04/11 00:36:05;;;;;;;70.05;66.18;;;;;;;5.70;100.00;101827.75;5560439;25;19997;-75
2024/04/11 00:38:34;;;;;;;65.07;61.83;;;;;;;5.47;100.00;101825.50;5563477;25;20000;-75
2024/04/11 00:41:00;;;;;;;25.33;24.13;;;;;;;5.46;100.00;101813.31;5560735;25;20836;-75
2024/04/11 00:43:32;;;;;;;25.77;24.67;;;;;;;5.53;100.00;101825.91;5563665;25;20001;-75
2024/04/11 00:45:59;;;;;;;26.77;25.48;;;;;;;5.28;100.00;101831.69;5560725;25;19996;-75
2024/04/11 00:48:28;;;;;;;27.10;25.90;;;;;;;5.55;100.00;101819.50;5563457;25;19996;-75
2024/04/11 00:50:57;;;;;;;25.60;24.40;;;;;;;5.49;100.00;101818.28;5561236;25;19997;-75
2024/04/11 00:53:26;;;;;;;25.75;24.65;;;;;;;5.23;100.00;101826.03;5563256;25;20005;-83
2024/04/11 00:55:54;;;;;;;26.50;24.60;;;;;;;5.30;100.00;101828.91;5561888;25;20005;-75
2024/04/11 00:58:24;;;;;;;25.55;24.45;;;;;;;5.62;100.00;101820.56;5530389;25;20041;-75
2024/04/11 01:00:55;;;;;;;24.40;23.20;;;;;;;5.39;100.00;101830.69;5551102;25;20005;-75
2024/04/11 01:03:25;;;;;;;25.73;24.33;;;;;;;5.30;100.00;101828.91;5562732;25;20000;-75
2024/04/11 01:05:52;;;;;;;24.63;23.52;;;;;;;5.33;100.00;101828.63;5560229;25;20352;-75
2024/04/11 01:08:21;;;;;;;25.73;24.42;;;;;;;5.45;100.00;101834.53;5562741;25;20016;-75
2024/04/11 01:10:50;;;;;;;25.90;24.70;;;;;;;5.38;100.00;101834.28;5560972;25;20053;-75
2024/04/11 01:13:20;;;;;;;24.42;23.33;;;;;;;5.49;100.00;101818.28;5563046;25;20020;-75
2024/04/11 01:15:47;;;;;;;27.38;25.88;;;;;;;5.61;100.00;101832.09;5560645;25;19996;-75
2024/04/11 01:18:19;;;;;;;25.63;24.42;;;;;;;5.49;100.00;101839.38;5563272;25;20076;-75
2024/04/11 01:20:47;;;;;;;25.23;24.05;;;;;;;5.43;100.00;101841.75;5561118;25;20341;-75
2024/04/11 01:23:22;;;;;;;26.27;24.98;;;;;;;5.40;100.00;101837.59;5562835;25;19997;-74
2024/04/11 01:25:49;;;;;;;25.05;23.85;;;;;;;5.47;100.00;101838.66;5560002;25;20075;-75
2024/04/11 01:28:18;;;;;;;25.55;24.10;;;;;;;5.29;100.00;101835.13;5562822;25;20001;-75
2024/04/11 01:30:44;;;;;;;26.77;25.48;;;;;;;5.19;100.00;101840.44;5560876;25;20416;-75
2024/04/11 01:33:14;;;;;;;25.77;24.48;;;;;;;5.15;100.00;101839.06;5563083;25;20433;-75
2024/04/11 01:35:40;;;;;;;24.30;23.10;;;;;;;4.93;100.00;101837.63;5560327;25;20048;-75
2024/04/11 01:38:09;;;;;;;25.58;24.17;;;;;;;4.73;100.00;101839.44;5562160;25;20033;-75
2024/04/11 01:40:41;;;;;;;26.35;25.25;;;;;;;4.80;100.00;101842.31;5561215;25;20442;-83
2024/04/11 01:43:10;;;;;;;28.90;27.70;;;;;;;4.90;100.00;101837.03;5564526;25;19992;-84
2024/04/11 01:45:37;;;;;;;28.30;27.00;;;;;;;4.76;100.00;101849.69;5561983;25;20752;-83
2024/04/11 01:48:07;;;;;;;26.85;25.70;;;;;;;4.43;100.00;101835.16;5564889;25;20011;-83
2024/04/11 01:50:33;;;;;;;25.55;24.55;;;;;;;4.47;100.00;101836.53;5561817;25;19993;-83
2024/04/11 01:53:08;;;;;;;24.92;23.83;;;;;;;4.46;100.00;101842.75;5565150;25;20001;-83
2024/04/11 01:55:41;;;;;;;24.30;23.10;;;;;;;4.43;100.00;101845.66;5562581;25;19992;-83
2024/04/11 01:58:16;;;;;;;26.10;25.00;;;;;;;4.43;100.00;101850.94;5562831;25;19993;-83
2024/04/11 02:00:45;;;;;;;23.15;22.05;;;;;;;4.41;100.00;101850.22;5559644;25;19997;-83
2024/04/11 02:03:13;;;;;;;25.70;24.35;;;;;;;4.52;100.00;101858.00;5563169;25;19996;-83
2024/04/11 02:05:44;;;;;;;23.33;22.35;;;;;;;4.43;100.00;101855.38;5564632;25;20011;-83
2024/04/11 02:08:16;;;;;;;24.95;23.85;;;;;;;4.37;100.00;101862.00;5562084;25;20045;-83
2024/04/11 02:10:49;;;;;;;26.17;24.98;;;;;;;4.36;100.00;101861.19;5565080;25;20008;-83
2024/04/11 02:13:15;;;;;;;24.33;23.33;;;;;;;4.23;100.00;101872.91;5561445;25;20023;-83
2024/04/11 02:15:45;;;;;;;25.17;23.90;;;;;;;4.28;100.00;101870.72;5564621;25;20000;-82
2024/04/11 02:18:12;;;;;;;23.83;22.83;;;;;;;4.04;100.00;101856.13;5560955;25;19992;-75
2024/04/11 02:20:40;;;;;;;26.67;25.48;;;;;;;4.32;100.00;101872.09;5560845;25;20011;-76
2024/04/11 02:23:07;;;;;;;27.52;26.42;;;;;;;4.29;100.00;101870.56;5559200;25;20466;-75
2024/04/11 02:25:36;;;;;;;45.20;43.10;;;;;;;4.19;100.00;101864.47;5561384;25;20076;-75
2024/04/11 02:28:06;;;;;;;55.50;52.92;;;;;;;4.17;100.00;101878.72;5559551;25;20020;-75
2024/04/11 02:30:35;;;;;;;49.58;47.38;;;;;;;4.21;100.00;101875.69;5562492;25;20012;-75
2024/04/11 02:33:01;;;;;;;57.50;54.95;;;;;;;4.04;100.00;101878.97;5559191;25;20121;-75
2024/04/11 02:35:32;;;;;;;59.25;56.45;;;;;;;3.99;100.00;101882.00;5561783;25;20000;-75
2024/04/11 02:37:58;;;;;;;49.13;46.83;;;;;;;3.91;100.00;101884.47;5559503;25;20000;-75
2024/04/11 02:40:27;;;;;;;51.90;49.58;;;;;;;3.98;100.00;101888.22;5562520;25;20027;-74
2024/04/11 02:42:54;;;;;;;46.88;44.65;;;;;;;3.99;100.00;101881.16;5560045;25;20000;-75
2024/04/11 02:45:27;;;;;;;40.78;38.97;;;;;;;4.02;100.00;101889.59;5524406;25;20008;-75
2024/04/11 02:47:53;;;;;;;;;;;;;;;4.23;100.00;101889.53;5522554;26;20002;-83
2024/04/11 02:50:24;;;;;;;37.22;35.63;;;;;;;3.96;100.00;101884.88;5525691;26;19923;-83
2024/04/11 02:52:50;;;;;;;33.75;32.35;;;;;;;3.89;100.00;101881.97;5523704;25;19997;-82
2024/04/11 02:55:19;;;;;;;28.35;26.98;;;;;;;4.03;100.00;101880.78;5563096;25;20008;-82
2024/04/11 02:57:51;;;;;;;27.35;26.15;;;;;;;3.90;100.00;101891.53;5560797;25;20104;-83
2024/04/11 03:00:21;;;;;;;36.97;34.70;;;;;;;3.78;100.00;101891.75;5556821;25;20436;-83
2024/04/11 03:02:49;;;;;;;45.28;43.08;;;;;;;3.87;100.00;101888.31;5560611;25;20011;-83
2024/04/11 03:05:19;;;;;;;39.97;38.08;;;;;;;3.78;100.00;101889.97;5525768;26;19997;-83
2024/04/11 03:07:45;;;;;;;49.53;47.33;;;;;;;3.96;100.00;101894.59;5522684;26;20041;-82
2024/04/11 03:10:20;;;;;;;42.28;40.42;;;;;;;3.85;100.00;101887.66;5551905;25;20142;-83
2024/04/11 03:12:47;;;;;;;38.75;37.05;;;;;;;3.84;100.00;101897.34;5560022;25;20898;-83
2024/04/11 03:15:18;;;;;;;25.75;24.65;;;;;;;3.76;100.00;101896.31;5562589;25;20044;-83
2024/04/11 03:17:45;;;;;;;25.08;23.98;;;;;;;3.48;100.00;101895.22;5560455;25;20829;-83
2024/04/11 03:20:17;;;;;;;27.50;26.30;;;;;;;3.70;100.00;101902.94;5562757;25;20004;-83
2024/04/11 03:22:51;;;;;;;39.10;37.50;;;;;;;3.72;100.00;101903.63;5560478;25;20385;-83
2024/04/11 03:25:20;;;;;;;40.00;38.20;;;;;;;3.74;100.00;101912.22;5562733;25;20452;-83
2024/04/11 03:27:46;;;;;;;48.70;46.38;;;;;;;3.88;100.00;101906.59;5560252;25;19997;-83
2024/04/11 03:30:15;;;;;;;38.00;36.30;;;;;;;3.78;100.00;101897.88;5563223;25;20012;-83
2024/04/11 03:32:41;;;;;;;31.95;30.65;;;;;;;3.47;100.00;101902.25;5562385;25;20539;-83
2024/04/11 03:35:11;;;;;;;32.83;30.48;;;;;;;3.60;100.00;101917.81;5567345;25;20437;-83
2024/04/11 03:37:42;;;;;;;27.95;26.40;;;;;;;3.62;100.00;101914.09;5563920;25;20057;-83
2024/04/11 03:40:12;;;;;;;26.20;25.00;;;;;;;3.84;100.00;101914.88;5554541;25;20344;-83
2024/04/11 03:42:41;;;;;;;28.58;27.10;;;;;;;3.74;100.00;101919.28;5563485;25;20088;-83
2024/04/11 03:45:22;;;;;;;23.60;22.60;;;;;;;3.63;100.00;101920.16;5562716;25;20011;-75
2024/04/11 03:47:51;;;;;;;24.17;23.08;;;;;;;3.59;100.00;101926.66;5562152;25;19997;-75
2024/04/11 03:50:20;;;;;;;27.17;25.98;;;;;;;3.50;100.00;101927.44;5561816;25;20545;-83
2024/04/11 03:52:50;;;;;;;47.17;43.67;;;;;;;3.48;100.00;101930.22;5563419;25;20444;-83
2024/04/11 03:55:20;;;;;;;28.95;27.55;;;;;;;3.44;100.00;101937.50;5565952;25;20000;-83
2024/04/11 03:57:46;;;;;;;25.25;24.13;;;;;;;3.43;100.00;101941.09;5562361;25;20056;-83
2024/04/11 04:00:16;;;;;;;26.83;25.52;;;;;;;3.57;100.00;101949.59;5560036;25;20049;-83
2024/04/11 04:02:42;;;;;;;29.58;28.13;;;;;;;3.58;100.00;101949.47;5561882;25;19996;-75
2024/04/11 04:05:13;;;;;;;20.95;19.85;;;;;;;3.72;100.00;101955.34;5563943;25;20001;-75
2024/04/11 04:07:39;;;;;;;21.17;20.17;;;;;;;4.09;100.00;101960.91;5550921;25;20342;-75
2024/04/11 04:10:12;;;;;;;21.23;20.20;;;;;;;4.79;100.00;101967.03;5560275;25;19997;-75
2024/04/11 04:12:38;;;;;;;32.67;30.88;;;;;;;4.43;100.00;101968.50;5561574;25;20344;-84
2024/04/11 04:15:08;;;;;;;33.15;31.10;;;;;;;4.74;100.00;101977.94;5543190;25;20000;-83
2024/04/11 04:17:34;;;;;;;61.13;57.22;;;;;;;4.98;100.00;101979.34;5542827;25;20767;-83
2024/04/11 04:20:03;;;;;;;32.63;30.92;;;;;;;4.91;100.00;101983.53;5547314;25;20081;-83
2024/04/11 04:22:29;;;;;;;33.00;31.30;;;;;;;5.22;100.00;101984.22;5546766;25;20741;-83
2024/04/11 04:24:59;;;;;;;35.40;33.60;;;;;;;5.24;100.00;101983.09;5562320;25;20428;-83
2024/04/11 04:27:30;;;;;;;20.40;19.30;;;;;;;5.49;100.00;101980.84;5541200;25;20430;-84
2024/04/11 04:30:00;;;;;;;21.65;20.50;;;;;;;5.27;100.00;101972.28;5538338;25;20081;-83
2024/04/11 04:32:27;;;;;;;22.95;21.50;;;;;;;12.51;100.00;101984.31;5555781;25;20883;-75
2024/04/11 04:34:57;;;;;;;27.42;25.95;;;;;;;6.89;100.00;101987.69;5549914;25;20013;-75
2024/04/11 04:37:24;;;;;;;24.60;23.33;;;;;;;5.99;100.00;101987.66;5559642;25;20032;-75
2024/04/11 04:39:53;;;;;;;23.77;22.58;;;;;;;5.85;100.00;101986.31;5555236;25;20008;-83
2024/04/11 04:42:19;;;;;;;23.50;22.30;;;;;;;5.76;100.00;101981.91;5561816;25;20000;-84
2024/04/11 04:44:57;;;;;;;23.77;22.58;;;;;;;6.19;100.00;101987.44;5563541;25;20011;-84
2024/04/11 04:47:34;;;;;;;23.98;22.67;;;;;;;6.19;100.00;102000.63;5560982;25;19993;-84
2024/04/11 04:50:03;;;;;;;24.40;23.10;;;;;;;6.45;100.00;102007.88;5564352;25;20016;-84
2024/04/11 04:52:33;;;;;;;24.63;23.02;;;;;;;6.37;100.00;102011.25;5561093;25;20081;-84
2024/04/11 04:55:02;;;;;;;23.67;22.27;;;;;;;6.56;100.00;102012.13;5563194;25;20001;-84
2024/04/11 04:57:31;;;;;;;23.52;22.30;;;;;;;6.51;100.00;102014.38;5560646;25;20011;-84
2024/04/11 05:00:03;;;;;;;22.38;21.20;;;;;;;6.64;100.00;102009.56;5556925;25;20007;-84
2024/04/11 05:02:32;;;;;;;24.42;23.13;;;;;;;6.78;100.00;102014.34;5561423;25;20000;-84
2024/04/11 05:05:03;;;;;;;25.20;23.77;;;;;;;7.27;100.00;102021.91;5564527;25;20007;-84
2024/04/11 05:07:29;;;;;;;25.52;24.23;;;;;;;7.14;100.00;102010.88;5561264;25;20012;-75
2024/04/11 05:09:59;;;;;;;24.90;23.55;;;;;;;7.04;100.00;102025.00;5563085;25;20028;-75
2024/04/11 05:12:27;;;;;;;23.73;22.58;;;;;;;7.20;100.00;102019.06;5560227;25;20333;-75
2024/04/11 05:14:56;;;;;;;25.05;23.85;;;;;;;7.46;100.00;102024.38;5562451;25;20001;-75
2024/04/11 05:17:26;;;;;;;28.50;26.80;;;;;;;7.64;100.00;102026.16;5560262;25;20340;-75
2024/04/11 05:19:55;;;;;;;25.02;23.92;;;;;;;7.69;100.00;102037.94;5562679;25;20016;-75
2024/04/11 05:22:22;;;;;;;25.30;24.10;;;;;;;7.78;100.00;102033.53;5560014;25;20015;-75
2024/04/11 05:24:51;;;;;;;21.92;20.83;;;;;;;8.14;100.00;102038.69;5562890;25;20043;-75
2024/04/11 05:27:17;;;;;;;23.27;22.00;;;;;;;8.30;100.00;102043.25;5561348;25;19993;-75
2024/04/11 05:29:46;;;;;;;22.90;21.63;;;;;;;8.32;100.00;102034.16;5562976;25;20011;-75
2024/04/11 05:32:12;;;;;;;22.42;21.33;;;;;;;8.60;100.00;102037.44;5560816;25;20085;-75
2024/04/11 05:34:44;;;;;;;22.23;21.13;;;;;;;8.45;100.00;102049.63;5562634;25;20505;-75
2024/04/11 05:37:14;;;;;;;22.20;21.00;;;;;;;8.74;100.00;102051.88;5560332;25;20005;-75
2024/04/11 05:39:44;;;;;;;20.17;19.17;;;;;;;9.00;100.00;102048.31;5563790;25;20001;-75
2024/04/11 05:42:10;;;;;;;21.05;20.05;;;;;;;8.90;100.00;102046.63;5560690;25;20069;-75
2024/04/11 05:44:39;;;;;;;21.67;20.67;;;;;;;9.16;100.00;102051.78;5563657;25;20007;-75
2024/04/11 05:47:08;;;;;;;22.58;20.75;;;;;;;9.34;100.00;102064.06;5560582;25;19997;-84
2024/04/11 05:49:39;;;;;;;18.83;17.95;;;;;;;9.44;100.00;102064.75;5564976;25;19996;-84
2024/04/11 05:52:11;;;;;;;20.98;19.90;;;;;;;9.68;100.00;102063.06;5562346;25;20021;-85
2024/04/11 05:54:58;;;;;;;19.38;18.40;;;;;;;9.90;100.00;102058.91;5560834;25;20699;-85
2024/04/11 05:57:25;;;;;;;20.10;18.90;;;;;;;10.32;100.00;102071.94;5554154;25;20076;-85
2024/04/11 05:59:55;;;;;;;20.88;19.70;;;;;;;10.31;100.00;102080.91;5565246;25;20317;-84
2024/04/11 06:02:21;;;;;;;19.23;18.17;;;;;;;10.59;100.00;102076.00;5557772;25;19997;-85
2024/04/11 06:04:52;;;;;;;19.25;18.35;;;;;;;10.90;100.00;102088.47;5564328;25;20399;-85
2024/04/11 06:07:21;;;;;;;19.80;18.70;;;;;;;10.91;100.00;102090.13;5561719;25;20008;-85
2024/04/11 06:09:52;;;;;;;20.60;19.40;;;;;;;11.15;100.00;102097.13;5553802;25;20071;-85
2024/04/11 06:12:21;;;;;;;20.15;19.05;;;;;;;11.19;100.00;102101.06;5560875;25;20000;-85
2024/04/11 06:14:50;;;;;;;21.63;20.42;;;;;;;11.79;100.00;102105.59;5563140;25;20016;-85
2024/04/11 06:17:17;;;;;;;20.50;19.40;;;;;;;11.62;100.00;102101.44;5561172;25;20007;-85
2024/04/11 06:19:45;;;;;;;19.23;18.23;;;;;;;11.91;100.00;102101.53;5564471;25;20453;-85
2024/04/11 06:22:12;;;;;;;21.63;20.42;;;;;;;12.22;100.00;102095.22;5560945;25;20027;-85
2024/04/11 06:24:44;;;;;;;21.02;19.83;;;;;;;12.37;100.00;102085.44;5563742;25;20001;-85
2024/04/11 06:27:13;;;;;;;21.45;20.00;;;;;;;12.49;100.00;102100.91;5561047;25;20022;-84
2024/04/11 06:29:42;;;;;;;21.63;20.52;;;;;;;13.16;100.00;102099.88;5561760;25;20008;-75
2024/04/11 06:32:12;;;;;;;20.40;19.30;;;;;;;13.29;100.00;102100.06;5558813;25;19997;-75
2024/04/11 06:34:42;;;;;;;20.08;19.02;;;;;;;13.54;100.00;102097.00;5561664;25;20040;-75
2024/04/11 06:37:10;;;;;;;23.17;21.88;;;;;;;13.52;100.00;102105.19;5559586;25;20000;-76
2024/04/11 06:39:44;;;;;;;22.35;21.15;;;;;;;13.89;100.00;102109.41;5561916;25;19997;-75
2024/04/11 06:42:13;;;;;;;22.10;20.90;;;;;;;14.11;100.00;102102.16;5559466;25;19996;-75
2024/04/11 06:44:45;;;;;;;21.98;20.67;;;;;;;14.58;100.00;102095.28;5562058;25;20007;-75
2024/04/11 06:47:12;;;;;;;23.73;22.23;;;;;;;14.87;100.00;102099.47;5559517;25;20048;-75
2024/04/11 06:49:42;;;;;;;25.25;23.75;;;;;;;14.98;100.00;102099.94;5561316;25;20003;-75
2024/04/11 06:52:12;;;;;;;25.13;23.52;;;;;;;15.32;100.00;102107.81;5558694;25;20417;-75
2024/04/11 06:54:46;;;;;;;24.38;22.88;;;;;;;15.80;100.00;102109.53;5559580;25;20028;-76
2024/04/11 06:57:14;;;;;;;25.45;23.95;;;;;;;15.93;100.00;102114.88;5522131;26;20333;-75
2024/04/11 06:59:44;;;;;;;27.50;25.35;;;;;;;15.85;100.00;102123.13;5559539;25;20008;-75
2024/04/11 07:02:14;;;;;;;24.88;23.38;;;;;;;16.60;100.00;102122.78;5552026;25;19997;-75
2024/04/11 07:04:43;;;;;;;23.70;22.20;;;;;;;16.79;100.00;102118.38;5560630;25;19997;-76
2024/04/11 07:07:10;;;;;;;26.13;24.58;;;;;;;16.86;100.00;102121.88;5559719;25;20820;-76
2024/04/11 07:09:42;;;;;;;25.02;23.52;;;;;;;16.74;100.00;102129.75;5561159;25;19996;-75
2024/04/11 07:12:11;;;;;;;26.63;25.02;;;;;;;17.55;100.00;102137.16;5559107;25;20445;-75
2024/04/11 07:14:41;;;;;;;27.20;25.40;;;;;;;16.46;100.00;102138.91;5563696;25;20016;-75
2024/04/11 07:17:11;;;;;;;25.40;23.70;;;;;;;16.96;100.00;102129.47;5559691;25;20000;-75
2024/04/11 07:19:42;;;;;;;26.02;24.42;;;;;;;17.36;100.00;102122.00;5564176;25;20782;-75
2024/04/11 07:22:09;;;;;;;25.27;23.77;;;;;;;17.01;100.00;102124.28;5561766;25;20028;-75
2024/04/11 07:24:38;;;;;;;28.27;26.67;;;;;;;17.33;100.00;102127.81;5562728;25;20080;-75
2024/04/11 07:27:11;;;;;;;26.25;24.58;;;;;;;17.21;100.00;102126.84;5560042;25;20529;-75
2024/04/11 07:29:45;;;;;;;24.70;23.20;;;;;;;17.70;100.00;102119.88;5563054;25;20033;-75
2024/04/11 07:32:11;;;;;;;25.23;23.73;;;;;;;17.03;100.00;102123.03;5564274;25;20011;-85
2024/04/11 07:34:40;;;;;;;29.50;27.60;;;;;;;17.32;100.00;102120.81;5567733;25;20008;-84
2024/04/11 07:37:15;;;;;;;27.75;26.15;;;;;;;17.25;100.00;102114.66;5564590;25;19997;-85
2024/04/11 07:40:07;;;;;;;25.13;23.52;;;;;;;18.39;100.00;102128.78;5566301;25;20070;-85
2024/04/11 07:42:54;;;;;;;24.73;23.23;;;;;;;18.67;100.00;102123.69;5565143;25;20032;-85
2024/04/11 07:45:30;;;;;;;26.40;24.80;;;;;;;18.73;100.00;102130.91;5567569;25;20237;-84
2024/04/11 07:47:58;;;;;;;27.83;26.13;;;;;;;18.58;100.00;102134.97;5555749;25;20521;-84
2024/04/11 07:50:29;;;;;;;27.83;26.02;;;;;;;18.82;100.00;102136.81;5568411;25;19996;-84
2024/04/11 07:53:02;;;;;;;25.42;23.83;;;;;;;18.65;100.00;102136.56;5565863;25;20458;-84
2024/04/11 07:55:31;;;;;;;26.25;24.55;;;;;;;18.39;100.00;102140.34;5568496;25;20012;-85
2024/04/11 07:57:58;;;;;;;26.48;24.77;;;;;;;18.76;100.00;102137.72;5565740;25;20001;-85
2024/04/11 08:00:38;;;;;;;27.08;25.27;;;;;;;18.75;100.00;102149.50;5568380;25;20005;-85
2024/04/11 08:03:24;;;;;;;29.77;27.90;;;;;;;19.17;100.00;102149.59;5565469;25;20045;-85
2024/04/11 08:05:53;;;;;;;37.17;34.97;;;;;;;19.14;100.00;102145.47;5567504;25;20054;-84
2024/04/11 08:08:20;;;;;;;30.15;28.17;;;;;;;19.28;100.00;102146.13;5564654;25;20049;-85
2024/04/11 08:10:50;;;;;;;33.03;30.92;;;;;;;20.22;100.00;102148.16;5567010;25;20076;-84
2024/04/11 08:13:18;;;;;;;30.55;28.55;;;;;;;20.18;100.00;102163.13;5564866;25;20029;-85
2024/04/11 08:15:50;;;;;;;30.95;28.95;;;;;;;20.29;100.00;102162.31;5566068;25;20012;-85
2024/04/11 08:18:23;;;;;;;29.55;27.65;;;;;;;20.43;100.00;102157.50;5560216;25;20328;-76
2024/04/11 08:20:52;;;;;;;30.27;28.23;;;;;;;20.52;100.00;102164.22;5563237;25;19996;-76
2024/04/11 08:23:20;;;;;;;31.02;28.92;;;;;;;20.34;100.00;102165.13;5561516;25;20001;-75
2024/04/11 08:25:49;;;;;;;32.95;30.58;;;;;;;20.75;100.00;102157.91;5564002;25;20025;-76
2024/04/11 08:28:15;;;;;;;31.80;29.60;;;;;;;20.80;100.00;102163.44;5561477;25;20044;-76
2024/04/11 08:30:52;;;;;;;38.13;35.72;;;;;;;20.86;100.00;102162.47;5563992;25;20012;-76
2024/04/11 08:33:24;;;;;;;40.53;37.83;;;;;;;20.66;100.00;102162.88;5563236;25;20011;-85
2024/04/11 08:35:53;;;;;;;39.88;37.22;;;;;;;20.45;100.00;102166.97;5565844;25;20015;-85
2024/04/11 08:38:23;;;;;;;41.00;38.40;;;;;;;21.93;100.00;102160.84;5555846;25;19993;-75
2024/04/11 08:40:57;;;;;;;43.38;40.45;;;;;;;21.10;100.00;102165.91;5561295;25;19997;-76
2024/04/11 08:43:27;;;;;;;45.67;42.88;;;;;;;21.02;100.00;102169.81;5560348;25;20011;-76
2024/04/11 08:46:06;;;;;;;43.33;40.53;;;;;;;22.08;100.00;102166.50;5562325;25;20933;-75
2024/04/11 08:48:32;;;;;;;40.22;37.63;;;;;;;22.05;100.00;102164.28;5554596;25;20019;-76
2024/04/11 08:51:06;;;;;;;40.88;38.17;;;;;;;21.90;98.29;102169.47;5535806;25;20442;-75
2024/04/11 08:53:34;;;;;;;37.25;34.75;;;;;;;21.77;100.00;102167.09;5545490;25;20012;-75
2024/04/11 08:56:11;;;;;;;39.65;37.05;;;;;;;22.26;100.00;102159.22;5537598;25;20736;-76
2024/04/11 08:58:39;;;;;;;140.52;133.93;;;;;;;22.10;98.03;102168.97;5553348;25;20343;-85
2024/04/11 09:01:14;;;;;;;53.75;50.50;;;;;;;21.80;92.45;102162.03;5536663;25;19997;-76
2024/04/11 09:03:41;;;;;;;63.30;59.50;;;;;;;22.63;100.00;102162.97;5558512;25;20452;-76
2024/04/11 09:06:12;;;;;;;39.33;36.72;;;;;;;22.49;100.00;102156.28;5563494;25;20000;-76
2024/04/11 09:08:39;;;;;;;38.95;36.25;;;;;;;22.57;94.08;102163.13;5527013;25;20103;-76
2024/04/11 09:11:08;;;;;;;43.15;40.40;;;;;;;23.00;100.00;102150.69;5563981;25;20015;-76
2024/04/11 09:13:36;;;;;;;30.55;28.55;;;;;;;23.38;100.00;102148.88;5560698;25;20001;-75
2024/04/11 09:16:07;;;;;;;63.75;60.25;;;;;;;22.30;97.20;102153.06;5564034;25;20033;-76
2024/04/11 09:18:35;;;;;;;66.90;63.30;;;;;;;22.73;100.00;102146.03;5560573;25;20036;-75
2024/04/11 09:21:06;;;;;;;47.53;44.78;;;;;;;22.80;100.00;102154.75;5562745;25;20001;-76
2024/04/11 09:23:35;;;;;;;66.93;63.42;;;;;;;22.62;100.00;102149.66;5530866;25;19997;-75
2024/04/11 09:26:04;;;;;;;103.80;98.80;;;;;;;21.63;100.00;102148.47;5534148;25;20415;-86
2024/04/11 09:28:30;;;;;;;40.17;37.72;;;;;;;22.40;100.00;102147.78;5525616;25;20033;-85
2024/04/11 09:31:00;;;;;;;135.20;128.88;;;;;;;23.08;100.00;102147.50;5551835;25;20069;-85
2024/04/11 09:33:29;;;;;;;109.30;104.10;;;;;;;23.07;100.00;102152.09;5548289;25;19993;-85
2024/04/11 09:36:03;;;;;;;68.35;64.55;;;;;;;23.51;100.00;102151.16;5564912;25;20009;-85
2024/04/11 09:38:36;;;;;;;60.45;56.95;;;;;;;23.17;100.00;102153.28;5561783;25;19996;-85
2024/04/11 09:41:11;;;;;;;70.20;66.50;;;;;;;23.48;100.00;102152.50;5564103;25;19997;-84
2024/04/11 09:43:40;;;;;;;78.10;74.03;;;;;;;21.73;98.00;102142.44;5524623;26;20006;-84
2024/04/11 09:46:15;;;;;;;76.10;72.05;;;;;;;23.79;100.00;102141.13;5552538;25;20005;-75
2024/04/11 09:48:44;;;;;;;77.18;73.18;;;;;;;23.38;98.09;102140.75;5559676;25;20005;-75
2024/04/11 09:51:17;;;;;;;78.32;74.22;;;;;;;22.21;100.00;102145.59;5560916;25;20436;-76
2024/04/11 09:53:43;;;;;;;79.20;75.10;;;;;;;21.30;100.00;102140.31;5559425;25;20100;-75
2024/04/11 09:56:15;;;;;;;80.80;76.78;;;;;;;22.98;100.00;102147.41;5559818;25;20005;-75
2024/04/11 09:58:43;;;;;;;;;;;;;;;24.22;99.25;102140.03;5544717;25;20012;-75
2024/04/11 10:01:29;;;;;;;62.17;58.67;;;;;;;23.80;97.67;102150.88;5548797;25;19955;-76
2024/04/11 10:04:00;;;;;;;69.07;65.38;;;;;;;24.53;97.35;102142.91;5555478;25;20075;-75
2024/04/11 10:06:35;;;;;;;74.07;70.18;;;;;;;24.28;100.00;102154.44;5555206;25;20404;-75
2024/04/11 10:09:17;;;;;;;45.25;42.15;;;;;;;22.19;92.44;102153.97;5559447;25;19996;-75
2024/04/11 10:11:55;;;;;;;56.67;53.33;;;;;;;24.13;100.00;102141.59;5562079;25;20009;-76
2024/04/11 10:14:32;;;;;;;52.67;49.47;;;;;;;24.27;86.77;102153.63;5560587;25;20000;-76
2024/04/11 10:17:02;;;;;;;58.20;54.60;;;;;;;23.53;90.93;102143.59;5559882;25;20007;-76
2024/04/11 10:19:35;;;;;;;54.88;51.78;;;;;;;24.41;85.38;102148.53;5561612;25;20000;-75
2024/04/11 10:22:08;;;;;;;53.45;50.33;;;;;;;24.87;84.36;102159.59;5559797;25;20084;-86
2024/04/11 10:24:38;;;;;;;62.75;59.05;;;;;;;24.80;100.00;102150.88;5563215;25;20011;-85
2024/04/11 10:27:10;;;;;;;66.50;62.70;;;;;;;24.91;83.99;102152.56;5561151;25;21303;-85
2024/04/11 10:29:43;;;;;;;70.40;66.27;;;;;;;24.09;98.79;102149.47;5564205;25;20000;-85
2024/04/11 10:32:22;;;;;;;67.22;62.95;;;;;;;23.21;83.47;102147.09;5561026;25;20742;-85
2024/04/11 10:35:01;;;;;;;65.82;62.13;;;;;;;24.73;88.03;102144.91;5563380;25;20001;-86
2024/04/11 10:37:33;;;;;;;62.55;58.85;;;;;;;24.53;77.55;102138.28;5560872;25;20044;-86
2024/04/11 10:40:02;;;;;;;65.03;61.27;;;;;;;23.59;79.53;102141.75;5563450;25;20000;-85
2024/04/11 10:42:36;;;;;;;63.55;59.95;;;;;;;24.30;90.16;102131.38;5560213;25;20588;-85
2024/04/11 10:45:10;;;;;;;68.30;64.30;;;;;;;25.20;100.00;102133.06;5563836;25;20444;-85
2024/04/11 10:47:38;;;;;;;69.13;65.13;;;;;;;25.37;93.31;102128.19;5560780;25;20011;-85
2024/04/11 10:50:09;;;;;;;66.20;62.55;;;;;;;24.84;100.00;102135.66;5525916;26;20090;-84
2024/04/11 10:52:40;;;;;;;;;;;;;;;24.83;71.21;102125.91;5524146;26;20012;-85
2024/04/11 10:58:08;;;;;;;80.10;75.55;;;;;;;24.11;83.29;102122.84;5558643;25;20432;-76
2024/04/11 11:01:07;;;;;;;56.72;53.22;;;;;;;24.74;74.60;102125.59;5521962;26;20009;-75
2024/04/11 11:03:46;;;;;;;44.78;41.88;;;;;;;24.83;95.92;102126.72;5521028;25;20001;-76
2024/04/11 11:06:24;;;;;;;46.65;43.55;;;;;;;24.78;80.20;102121.28;5559228;25;19997;-75
2024/04/11 11:08:59;;;;;;;46.17;42.97;;;;;;;25.01;87.62;102119.97;5561945;25;20001;-76
2024/04/11 11:11:26;;;;;;;84.85;80.35;;;;;;;24.36;100.00;102115.94;5559343;25;20445;-76
2024/04/11 11:14:00;;;;;;;77.47;73.30;;;;;;;25.53;100.00;102108.03;5561128;25;20034;-76
2024/04/11 11:16:31;;;;;;;78.60;73.80;;;;;;;26.45;100.00;102105.13;5557869;25;20003;-75
2024/04/11 11:19:01;;;;;;;72.90;68.97;;;;;;;25.46;78.55;102102.06;5561295;25;20473;-76
2024/04/11 11:21:32;;;;;;;73.15;69.25;;;;;;;26.06;93.87;102096.84;5558946;25;20012;-76
2024/04/11 11:24:06;;;;;;;78.87;74.57;;;;;;;26.38;90.68;102103.78;5561933;25;20009;-75